sensor_id;sensor_type;location;lat;lon;timestamp;pressure;altitude;pressure_sealevel;temperature;humidity
49473;BME280;67434;50.956;6.918;2023-04-01T00:02:38;98996.13;;;10.41;73.17
49473;BME280;67434;50.956;6.918;2023-04-01T00:05:23;98995.59;;;10.39;73.22
49473;BME280;67434;50.956;6.918;2023-04-01T00:08:09;98994.22;;;10.41;73.65
49473;BME280;67434;50.956;6.918;2023-04-01T00:10:55;98997.50;;;10.38;73.49
49473;BME280;67434;50.956;6.918;2023-04-01T00:13:43;98991.75;;;10.45;73.17
49473;BME280;67434;50.956;6.918;2023-04-01T00:16:28;98994.44;;;10.45;73.20
49473;BME280;67434;50.956;6.918;2023-04-01T00:19:14;98996.94;;;10.41;72.92
49473;BME280;67434;50.956;6.918;2023-04-01T00:22:00;98991.31;;;10.38;73.09
49473;BME280;67434;50.956;6.918;2023-04-01T00:24:46;98988.75;;;10.46;73.15
49473;BME280;67434;50.956;6.918;2023-04-01T00:27:32;98984.22;;;10.42;73.25
49473;BME280;67434;50.956;6.918;2023-04-01T00:30:18;98989.84;;;10.45;72.90
49473;BME280;67434;50.956;6.918;2023-04-01T00:33:04;98991.25;;;10.43;72.83
49473;BME280;67434;50.956;6.918;2023-04-01T00:35:50;98979.94;;;10.41;73.33
49473;BME280;67434;50.956;6.918;2023-04-01T00:38:36;98989.34;;;10.43;73.11
49473;BME280;67434;50.956;6.918;2023-04-01T00:41:22;98986.41;;;10.40;73.20
49473;BME280;67434;50.956;6.918;2023-04-01T00:44:15;98989.91;;;10.40;73.39
49473;BME280;67434;50.956;6.918;2023-04-01T00:47:01;98983.69;;;10.40;73.66
49473;BME280;67434;50.956;6.918;2023-04-01T00:49:50;98983.84;;;10.48;73.09
49473;BME280;67434;50.956;6.918;2023-04-01T00:52:36;98979.53;;;10.47;72.97
49473;BME280;67434;50.956;6.918;2023-04-01T00:55:23;98978.03;;;10.41;73.29
49473;BME280;67434;50.956;6.918;2023-04-01T00:58:12;98971.00;;;10.40;73.41
49473;BME280;67434;50.956;6.918;2023-04-01T01:00:59;98976.19;;;10.37;73.24
49473;BME280;67434;50.956;6.918;2023-04-01T01:03:46;98974.78;;;10.39;73.53
49473;BME280;67434;50.956;6.918;2023-04-01T01:06:46;98977.28;;;10.36;73.29
49473;BME280;67434;50.956;6.918;2023-04-01T01:12:31;98975.84;;;10.43;73.23
49473;BME280;67434;50.956;6.918;2023-04-01T01:15:24;98973.69;;;10.40;73.17
49473;BME280;67434;50.956;6.918;2023-04-01T01:24:46;98972.81;;;10.45;72.90
49473;BME280;67434;50.956;6.918;2023-04-01T01:27:40;98977.94;;;10.46;73.08
49473;BME280;67434;50.956;6.918;2023-04-01T01:30:35;98964.22;;;10.43;72.94
49473;BME280;67434;50.956;6.918;2023-04-01T01:33:34;98972.63;;;10.41;73.28
49473;BME280;67434;50.956;6.918;2023-04-01T01:36:27;98964.72;;;10.45;73.01
49473;BME280;67434;50.956;6.918;2023-04-01T01:39:15;98959.81;;;10.47;73.49
49473;BME280;67434;50.956;6.918;2023-04-01T01:42:04;98973.50;;;10.37;74.21
49473;BME280;67434;50.956;6.918;2023-04-01T01:44:52;98980.28;;;10.34;75.03
49473;BME280;67434;50.956;6.918;2023-04-01T01:47:39;98973.78;;;10.35;74.65
49473;BME280;67434;50.956;6.918;2023-04-01T01:50:26;98977.69;;;10.29;75.25
49473;BME280;67434;50.956;6.918;2023-04-01T01:53:13;98969.19;;;10.36;74.94
49473;BME280;67434;50.956;6.918;2023-04-01T01:55:59;98973.78;;;10.21;75.68
49473;BME280;67434;50.956;6.918;2023-04-01T01:58:47;98976.88;;;10.28;76.02
49473;BME280;67434;50.956;6.918;2023-04-01T02:01:38;98975.75;;;10.16;76.29
49473;BME280;67434;50.956;6.918;2023-04-01T02:04:26;98980.34;;;10.15;77.24
49473;BME280;67434;50.956;6.918;2023-04-01T02:07:18;98978.75;;;10.14;77.44
49473;BME280;67434;50.956;6.918;2023-04-01T02:10:05;98967.22;;;10.09;77.90
49473;BME280;67434;50.956;6.918;2023-04-01T02:12:53;98974.81;;;10.07;78.51
49473;BME280;67434;50.956;6.918;2023-04-01T02:15:46;98983.56;;;9.98;79.10
49473;BME280;67434;50.956;6.918;2023-04-01T02:18:35;98974.13;;;9.82;80.21
49473;BME280;67434;50.956;6.918;2023-04-01T02:21:24;98971.44;;;9.82;80.48
49473;BME280;67434;50.956;6.918;2023-04-01T02:24:13;98976.94;;;9.77;81.70
49473;BME280;67434;50.956;6.918;2023-04-01T02:27:01;98974.59;;;9.70;81.85
49473;BME280;67434;50.956;6.918;2023-04-01T02:29:46;98967.53;;;9.56;82.21
49473;BME280;67434;50.956;6.918;2023-04-01T02:32:33;98972.50;;;9.49;82.69
49473;BME280;67434;50.956;6.918;2023-04-01T02:35:23;98961.72;;;9.49;82.46
49473;BME280;67434;50.956;6.918;2023-04-01T02:38:09;98975.94;;;9.35;83.63
49473;BME280;67434;50.956;6.918;2023-04-01T02:40:59;98967.63;;;9.32;84.57
49473;BME280;67434;50.956;6.918;2023-04-01T02:43:46;98972.50;;;9.30;84.37
49473;BME280;67434;50.956;6.918;2023-04-01T02:46:31;98960.84;;;9.34;84.16
49473;BME280;67434;50.956;6.918;2023-04-01T02:49:17;98974.03;;;9.36;84.53
49473;BME280;67434;50.956;6.918;2023-04-01T02:52:03;98964.19;;;9.26;84.52
49473;BME280;67434;50.956;6.918;2023-04-01T02:54:48;98964.69;;;9.28;84.40
49473;BME280;67434;50.956;6.918;2023-04-01T02:57:34;98957.47;;;9.24;84.22
49473;BME280;67434;50.956;6.918;2023-04-01T03:00:20;98960.75;;;9.21;84.01
49473;BME280;67434;50.956;6.918;2023-04-01T03:03:06;98960.94;;;9.29;84.32
49473;BME280;67434;50.956;6.918;2023-04-01T03:05:51;98956.25;;;9.35;83.24
49473;BME280;67434;50.956;6.918;2023-04-01T03:08:41;98969.81;;;9.30;83.55
49473;BME280;67434;50.956;6.918;2023-04-01T03:11:27;98966.06;;;9.26;83.44
49473;BME280;67434;50.956;6.918;2023-04-01T03:14:12;98970.25;;;9.37;82.59
49473;BME280;67434;50.956;6.918;2023-04-01T03:16:58;98961.06;;;9.38;82.26
49473;BME280;67434;50.956;6.918;2023-04-01T03:19:43;98974.75;;;9.42;82.35
49473;BME280;67434;50.956;6.918;2023-04-01T03:22:29;98967.19;;;9.44;81.74
49473;BME280;67434;50.956;6.918;2023-04-01T03:25:15;98974.84;;;9.36;81.97
49473;BME280;67434;50.956;6.918;2023-04-01T03:28:00;98978.84;;;9.39;81.91
49473;BME280;67434;50.956;6.918;2023-04-01T03:30:46;98973.81;;;9.32;81.98
49473;BME280;67434;50.956;6.918;2023-04-01T03:33:32;98980.66;;;9.44;80.46
49473;BME280;67434;50.956;6.918;2023-04-01T03:36:18;98978.03;;;9.38;81.03
49473;BME280;67434;50.956;6.918;2023-04-01T03:39:03;98975.63;;;9.37;81.68
49473;BME280;67434;50.956;6.918;2023-04-01T03:41:49;98977.81;;;9.35;81.33
49473;BME280;67434;50.956;6.918;2023-04-01T03:44:35;98990.94;;;9.42;81.38
49473;BME280;67434;50.956;6.918;2023-04-01T03:47:21;98988.31;;;9.36;82.00
49473;BME280;67434;50.956;6.918;2023-04-01T03:50:07;98986.44;;;9.37;81.11
49473;BME280;67434;50.956;6.918;2023-04-01T03:52:52;98983.00;;;9.31;81.47
49473;BME280;67434;50.956;6.918;2023-04-01T03:55:38;98978.94;;;9.34;81.74
49473;BME280;67434;50.956;6.918;2023-04-01T03:58:24;98987.44;;;9.41;80.81
49473;BME280;67434;50.956;6.918;2023-04-01T04:01:18;98985.56;;;9.42;80.98
49473;BME280;67434;50.956;6.918;2023-04-01T04:04:05;98988.69;;;9.49;80.80
49473;BME280;67434;50.956;6.918;2023-04-01T04:06:51;98988.00;;;9.57;79.85
49473;BME280;67434;50.956;6.918;2023-04-01T04:09:37;98981.00;;;9.56;80.31
49473;BME280;67434;50.956;6.918;2023-04-01T04:12:23;98991.59;;;9.52;80.49
49473;BME280;67434;50.956;6.918;2023-04-01T04:15:09;98993.91;;;9.59;80.09
49473;BME280;67434;50.956;6.918;2023-04-01T04:17:54;98992.22;;;9.63;78.29
49473;BME280;67434;50.956;6.918;2023-04-01T04:20:45;98991.72;;;9.61;79.54
49473;BME280;67434;50.956;6.918;2023-04-01T04:23:36;98998.81;;;9.57;80.22
49473;BME280;67434;50.956;6.918;2023-04-01T04:26:22;98993.31;;;9.62;79.25
49473;BME280;67434;50.956;6.918;2023-04-01T04:29:08;98992.31;;;9.58;79.96
49473;BME280;67434;50.956;6.918;2023-04-01T04:31:53;98993.91;;;9.59;80.59
49473;BME280;67434;50.956;6.918;2023-04-01T04:34:39;98988.69;;;9.49;80.45
49473;BME280;67434;50.956;6.918;2023-04-01T04:37:25;98996.09;;;9.57;80.04
49473;BME280;67434;50.956;6.918;2023-04-01T04:40:11;98989.81;;;9.61;80.15
49473;BME280;67434;50.956;6.918;2023-04-01T04:42:57;98992.09;;;9.54;80.82
49473;BME280;67434;50.956;6.918;2023-04-01T04:45:42;98998.22;;;9.60;80.79
49473;BME280;67434;50.956;6.918;2023-04-01T04:48:28;98995.09;;;9.53;81.54
49473;BME280;67434;50.956;6.918;2023-04-01T04:51:15;99001.28;;;9.53;81.65
49473;BME280;67434;50.956;6.918;2023-04-01T04:54:02;99004.94;;;9.44;82.57
49473;BME280;67434;50.956;6.918;2023-04-01T04:56:51;99009.81;;;9.42;82.88
49473;BME280;67434;50.956;6.918;2023-04-01T04:59:36;99003.91;;;9.39;82.87
49473;BME280;67434;50.956;6.918;2023-04-01T05:02:22;99003.19;;;9.34;83.61
49473;BME280;67434;50.956;6.918;2023-04-01T05:05:08;99016.38;;;9.35;83.77
49473;BME280;67434;50.956;6.918;2023-04-01T05:07:54;99018.84;;;9.32;84.44
49473;BME280;67434;50.956;6.918;2023-04-01T05:10:39;99016.97;;;9.32;84.05
49473;BME280;67434;50.956;6.918;2023-04-01T05:13:25;99022.22;;;9.43;83.04
49473;BME280;67434;50.956;6.918;2023-04-01T05:16:14;99024.63;;;9.44;83.04
49473;BME280;67434;50.956;6.918;2023-04-01T05:19:00;99013.63;;;9.40;83.32
49473;BME280;67434;50.956;6.918;2023-04-01T05:21:45;99016.91;;;9.37;83.78
49473;BME280;67434;50.956;6.918;2023-04-01T05:24:32;99029.28;;;9.38;83.63
49473;BME280;67434;50.956;6.918;2023-04-01T05:27:18;99037.66;;;9.37;84.48
49473;BME280;67434;50.956;6.918;2023-04-01T05:30:05;99034.09;;;9.42;83.50
49473;BME280;67434;50.956;6.918;2023-04-01T05:32:51;99032.50;;;9.40;84.43
49473;BME280;67434;50.956;6.918;2023-04-01T05:35:36;99036.06;;;9.36;84.69
49473;BME280;67434;50.956;6.918;2023-04-01T05:38:22;99040.06;;;9.38;84.06
49473;BME280;67434;50.956;6.918;2023-04-01T05:41:08;99045.75;;;9.37;85.06
49473;BME280;67434;50.956;6.918;2023-04-01T05:43:54;99044.44;;;9.34;85.43
49473;BME280;67434;50.956;6.918;2023-04-01T05:46:40;99039.84;;;9.35;85.95
49473;BME280;67434;50.956;6.918;2023-04-01T05:49:26;99035.53;;;9.34;85.73
49473;BME280;67434;50.956;6.918;2023-04-01T05:52:12;99032.63;;;9.30;86.04
49473;BME280;67434;50.956;6.918;2023-04-01T05:54:58;99039.63;;;9.31;86.40
49473;BME280;67434;50.956;6.918;2023-04-01T05:57:46;99049.94;;;9.24;86.24
49473;BME280;67434;50.956;6.918;2023-04-01T06:00:33;99053.94;;;9.27;86.48
49473;BME280;67434;50.956;6.918;2023-04-01T06:03:19;99045.94;;;9.22;86.94
49473;BME280;67434;50.956;6.918;2023-04-01T06:06:08;99048.41;;;9.18;88.18
49473;BME280;67434;50.956;6.918;2023-04-01T06:09:12;99046.28;;;9.15;88.36
49473;BME280;67434;50.956;6.918;2023-04-01T06:24:30;99066.38;;;9.47;86.78
49473;BME280;67434;50.956;6.918;2023-04-01T06:30:43;99068.22;;;9.51;86.57
49473;BME280;67434;50.956;6.918;2023-04-01T06:42:40;99077.75;;;9.62;85.99
49473;BME280;67434;50.956;6.918;2023-04-01T06:45:42;99069.97;;;9.61;85.59
49473;BME280;67434;50.956;6.918;2023-04-01T06:48:58;99082.88;;;9.64;85.75
49473;BME280;67434;50.956;6.918;2023-04-01T06:58:42;99071.59;;;9.81;84.66
49473;BME280;67434;50.956;6.918;2023-04-01T07:01:39;99079.75;;;9.76;84.93
49473;BME280;67434;50.956;6.918;2023-04-01T07:04:28;99092.38;;;9.80;84.95
49473;BME280;67434;50.956;6.918;2023-04-01T07:07:27;99083.97;;;9.82;85.11
49473;BME280;67434;50.956;6.918;2023-04-01T07:10:31;99093.53;;;9.74;85.47
49473;BME280;67434;50.956;6.918;2023-04-01T07:13:24;99091.94;;;9.73;85.91
49473;BME280;67434;50.956;6.918;2023-04-01T07:16:26;99092.75;;;9.74;85.75
49473;BME280;67434;50.956;6.918;2023-04-01T07:22:14;99090.34;;;9.72;85.94
49473;BME280;67434;50.956;6.918;2023-04-01T07:25:11;99097.63;;;9.71;86.14
49473;BME280;67434;50.956;6.918;2023-04-01T07:28:06;99108.25;;;9.63;86.22
49473;BME280;67434;50.956;6.918;2023-04-01T07:31:15;99115.03;;;9.60;86.26
49473;BME280;67434;50.956;6.918;2023-04-01T07:34:13;99120.59;;;9.69;86.16
49473;BME280;67434;50.956;6.918;2023-04-01T07:37:13;99122.94;;;9.76;85.75
49473;BME280;67434;50.956;6.918;2023-04-01T07:41:05;99129.34;;;9.80;85.33
49473;BME280;67434;50.956;6.918;2023-04-01T07:46:32;99122.94;;;9.94;84.77
49473;BME280;67434;50.956;6.918;2023-04-01T07:52:47;99130.44;;;9.97;84.88
49473;BME280;67434;50.956;6.918;2023-04-01T08:02:44;99138.13;;;10.09;84.86
49473;BME280;67434;50.956;6.918;2023-04-01T08:09:09;99155.91;;;10.10;85.27
49473;BME280;67434;50.956;6.918;2023-04-01T08:18:03;99166.63;;;9.96;85.61
49473;BME280;67434;50.956;6.918;2023-04-01T08:20:52;99169.41;;;10.10;85.21
49473;BME280;67434;50.956;6.918;2023-04-01T08:23:43;99176.97;;;9.89;86.50
49473;BME280;67434;50.956;6.918;2023-04-01T08:26:44;99171.91;;;10.07;85.70
49473;BME280;67434;50.956;6.918;2023-04-01T08:29:37;99180.03;;;10.01;85.67
49473;BME280;67434;50.956;6.918;2023-04-01T08:32:28;99186.38;;;9.92;85.80
49473;BME280;67434;50.956;6.918;2023-04-01T08:38:29;99189.13;;;10.11;85.86
49473;BME280;67434;50.956;6.918;2023-04-01T08:53:25;99198.75;;;10.17;84.32
49473;BME280;67434;50.956;6.918;2023-04-01T09:02:50;99211.03;;;10.28;84.20
49473;BME280;67434;50.956;6.918;2023-04-01T09:18:29;99222.00;;;10.55;83.93
49473;BME280;67434;50.956;6.918;2023-04-01T09:21:24;99225.38;;;10.47;83.70
49473;BME280;67434;50.956;6.918;2023-04-01T09:24:33;99228.56;;;10.49;84.85
49473;BME280;67434;50.956;6.918;2023-04-01T09:27:31;99236.22;;;10.23;85.29
49473;BME280;67434;50.956;6.918;2023-04-01T09:30:48;99239.91;;;10.09;86.17
49473;BME280;67434;50.956;6.918;2023-04-01T09:37:07;99254.22;;;10.09;86.11
49473;BME280;67434;50.956;6.918;2023-04-01T09:40:23;99253.44;;;10.27;86.35
49473;BME280;67434;50.956;6.918;2023-04-01T09:43:29;99250.81;;;10.22;85.58
49473;BME280;67434;50.956;6.918;2023-04-01T09:46:37;99262.19;;;10.19;85.38
49473;BME280;67434;50.956;6.918;2023-04-01T09:49:53;99255.47;;;10.17;85.77
49473;BME280;67434;50.956;6.918;2023-04-01T09:52:55;99268.78;;;10.32;85.29
49473;BME280;67434;50.956;6.918;2023-04-01T09:56:03;99272.00;;;10.34;83.83
49473;BME280;67434;50.956;6.918;2023-04-01T10:27:34;99303.78;;;10.61;81.89
49473;BME280;67434;50.956;6.918;2023-04-01T10:34:02;99314.94;;;10.73;81.17
49473;BME280;67434;50.956;6.918;2023-04-01T10:36:56;99308.66;;;10.78;81.77
49473;BME280;67434;50.956;6.918;2023-04-01T10:59:11;99326.34;;;11.40;78.99
49473;BME280;67434;50.956;6.918;2023-04-01T11:08:21;99322.31;;;11.70;78.07
49473;BME280;67434;50.956;6.918;2023-04-01T11:11:46;99325.16;;;11.79;77.00
49473;BME280;67434;50.956;6.918;2023-04-01T11:15:44;99333.69;;;11.86;77.49
49473;BME280;67434;50.956;6.918;2023-04-01T11:24:38;99342.72;;;11.49;77.50
49473;BME280;67434;50.956;6.918;2023-04-01T11:27:33;99338.56;;;11.70;76.47
49473;BME280;67434;50.956;6.918;2023-04-01T11:30:28;99335.09;;;11.83;75.64
49473;BME280;67434;50.956;6.918;2023-04-01T11:33:23;99341.16;;;11.94;75.05
49473;BME280;67434;50.956;6.918;2023-04-01T11:36:23;99338.75;;;11.93;75.84
49473;BME280;67434;50.956;6.918;2023-04-01T11:39:20;99354.19;;;12.06;75.90
49473;BME280;67434;50.956;6.918;2023-04-01T11:48:02;99354.81;;;12.30;75.09
49473;BME280;67434;50.956;6.918;2023-04-01T12:00:38;99375.59;;;11.88;76.44
49473;BME280;67434;50.956;6.918;2023-04-01T12:04:10;99383.31;;;11.81;77.12
49473;BME280;67434;50.956;6.918;2023-04-01T12:07:21;99387.47;;;11.60;77.79
49473;BME280;67434;50.956;6.918;2023-04-01T12:10:18;99388.88;;;11.39;77.36
49473;BME280;67434;50.956;6.918;2023-04-01T12:13:12;99391.41;;;11.49;76.94
49473;BME280;67434;50.956;6.918;2023-04-01T12:25:52;99392.31;;;11.77;74.91
49473;BME280;67434;50.956;6.918;2023-04-01T12:32:33;99411.72;;;12.30;73.59
49473;BME280;67434;50.956;6.918;2023-04-01T12:35:39;99412.56;;;12.26;73.62
49473;BME280;67434;50.956;6.918;2023-04-01T12:38:36;99406.13;;;11.94;74.74
49473;BME280;67434;50.956;6.918;2023-04-01T12:55:58;99425.28;;;11.65;76.40
49473;BME280;67434;50.956;6.918;2023-04-01T13:01:55;99428.16;;;11.55;76.20
49473;BME280;67434;50.956;6.918;2023-04-01T13:10:53;99437.22;;;11.97;74.82
49473;BME280;67434;50.956;6.918;2023-04-01T13:16:53;99445.66;;;11.95;74.80
49473;BME280;67434;50.956;6.918;2023-04-01T13:19:56;99440.56;;;12.07;74.29
49473;BME280;67434;50.956;6.918;2023-04-01T13:28:53;99457.31;;;12.09;74.96
49473;BME280;67434;50.956;6.918;2023-04-01T13:31:52;99457.84;;;12.25;74.07
49473;BME280;67434;50.956;6.918;2023-04-01T13:47:55;99469.47;;;11.61;77.27
49473;BME280;67434;50.956;6.918;2023-04-01T13:54:15;99484.47;;;11.34;78.49
49473;BME280;67434;50.956;6.918;2023-04-01T14:00:59;99479.84;;;11.35;79.32
49473;BME280;67434;50.956;6.918;2023-04-01T14:12:59;99497.53;;;11.46;78.69
49473;BME280;67434;50.956;6.918;2023-04-01T14:21:43;99501.63;;;11.24;79.27
49473;BME280;67434;50.956;6.918;2023-04-01T14:27:37;99515.94;;;11.06;80.23
49473;BME280;67434;50.956;6.918;2023-04-01T14:33:49;99512.69;;;11.04;81.03
49473;BME280;67434;50.956;6.918;2023-04-01T14:39:45;99521.16;;;11.21;82.02
49473;BME280;67434;50.956;6.918;2023-04-01T14:48:38;99529.56;;;10.96;83.28
49473;BME280;67434;50.956;6.918;2023-04-01T14:51:38;99533.84;;;10.78;83.38
49473;BME280;67434;50.956;6.918;2023-04-01T14:54:36;99537.16;;;10.94;83.44
49473;BME280;67434;50.956;6.918;2023-04-01T14:57:25;99531.47;;;11.19;82.02
49473;BME280;67434;50.956;6.918;2023-04-01T15:00:18;99532.78;;;11.22;81.63
49473;BME280;67434;50.956;6.918;2023-04-01T15:03:20;99534.84;;;11.30;81.38
49473;BME280;67434;50.956;6.918;2023-04-01T15:12:11;99547.63;;;11.24;80.99
49473;BME280;67434;50.956;6.918;2023-04-01T15:18:12;99560.41;;;11.19;79.98
49473;BME280;67434;50.956;6.918;2023-04-01T15:24:25;99557.75;;;11.14;80.51
49473;BME280;67434;50.956;6.918;2023-04-01T15:27:35;99574.38;;;11.02;79.56
49473;BME280;67434;50.956;6.918;2023-04-01T15:31:36;99568.31;;;11.15;79.75
49473;BME280;67434;50.956;6.918;2023-04-01T15:40:02;99587.56;;;11.33;77.96
49473;BME280;67434;50.956;6.918;2023-04-01T15:43:14;99585.88;;;11.37;77.57
49473;BME280;67434;50.956;6.918;2023-04-01T15:46:29;99588.22;;;11.43;77.52
49473;BME280;67434;50.956;6.918;2023-04-01T15:52:23;99611.59;;;11.10;78.54
49473;BME280;67434;50.956;6.918;2023-04-01T15:55:27;99612.09;;;11.17;78.09
49473;BME280;67434;50.956;6.918;2023-04-01T16:01:38;99610.69;;;10.96;79.65
49473;BME280;67434;50.956;6.918;2023-04-01T16:07:48;99616.56;;;11.03;79.07
49473;BME280;67434;50.956;6.918;2023-04-01T16:14:17;99627.50;;;10.93;79.52
49473;BME280;67434;50.956;6.918;2023-04-01T16:20:19;99626.09;;;10.95;79.54
49473;BME280;67434;50.956;6.918;2023-04-01T16:26:39;99636.22;;;10.85;80.94
49473;BME280;67434;50.956;6.918;2023-04-01T16:32:57;99648.25;;;10.69;81.58
49473;BME280;67434;50.956;6.918;2023-04-01T16:35:53;99639.47;;;10.53;82.99
49473;BME280;67434;50.956;6.918;2023-04-01T16:38:49;99647.91;;;10.46;83.65
49473;BME280;67434;50.956;6.918;2023-04-01T16:45:16;99663.97;;;10.27;84.44
49473;BME280;67434;50.956;6.918;2023-04-01T16:48:17;99668.06;;;10.25;84.59
49473;BME280;67434;50.956;6.918;2023-04-01T16:51:13;99667.03;;;10.11;84.74
49473;BME280;67434;50.956;6.918;2023-04-01T16:59:58;99679.13;;;10.23;84.15
49473;BME280;67434;50.956;6.918;2023-04-01T17:02:52;99676.72;;;10.22;84.66
49473;BME280;67434;50.956;6.918;2023-04-01T17:15:32;99694.00;;;10.16;85.04
49473;BME280;67434;50.956;6.918;2023-04-01T17:21:57;99707.50;;;10.21;84.49
49473;BME280;67434;50.956;6.918;2023-04-01T17:25:36;99718.31;;;10.21;84.98
49473;BME280;67434;50.956;6.918;2023-04-01T17:28:14;99713.78;;;10.01;85.80
49473;BME280;67434;50.956;6.918;2023-04-01T17:31:31;99725.41;;;9.96;85.78
49473;BME280;67434;50.956;6.918;2023-04-01T17:37:54;99727.09;;;9.87;86.46
49473;BME280;67434;50.956;6.918;2023-04-01T17:47:00;99743.38;;;9.67;87.30
49473;BME280;67434;50.956;6.918;2023-04-01T17:59:35;99760.34;;;9.62;86.65
49473;BME280;67434;50.956;6.918;2023-04-01T18:09:02;99777.34;;;9.63;87.58
49473;BME280;67434;50.956;6.918;2023-04-01T18:15:19;99787.38;;;9.52;88.04
49473;BME280;67434;50.956;6.918;2023-04-01T18:24:21;99804.13;;;9.39;88.29
49473;BME280;67434;50.956;6.918;2023-04-01T18:27:22;99807.63;;;9.29;88.62
49473;BME280;67434;50.956;6.918;2023-04-01T18:30:22;99810.34;;;9.29;87.98
49473;BME280;67434;50.956;6.918;2023-04-01T18:33:19;99820.56;;;9.22;89.02
49473;BME280;67434;50.956;6.918;2023-04-01T18:36:21;99813.00;;;9.24;88.70
49473;BME280;67434;50.956;6.918;2023-04-01T18:39:17;99828.38;;;9.24;88.60
49473;BME280;67434;50.956;6.918;2023-04-01T18:45:54;99829.47;;;9.18;88.80
49473;BME280;67434;50.956;6.918;2023-04-01T18:48:57;99841.06;;;9.18;89.28
49473;BME280;67434;50.956;6.918;2023-04-01T18:51:56;99839.16;;;9.14;89.36
49473;BME280;67434;50.956;6.918;2023-04-01T18:58:22;99847.00;;;9.20;89.04
49473;BME280;67434;50.956;6.918;2023-04-01T19:01:12;99856.16;;;9.14;89.45
49473;BME280;67434;50.956;6.918;2023-04-01T19:04:08;99858.31;;;9.12;89.72
49473;BME280;67434;50.956;6.918;2023-04-01T19:06:58;99857.22;;;9.08;90.18
49473;BME280;67434;50.956;6.918;2023-04-01T19:09:47;99864.50;;;9.13;90.22
49473;BME280;67434;50.956;6.918;2023-04-01T19:12:46;99869.09;;;9.17;90.68
49473;BME280;67434;50.956;6.918;2023-04-01T19:21:58;99873.69;;;9.22;90.09
49473;BME280;67434;50.956;6.918;2023-04-01T19:27:53;99887.69;;;9.19;89.76
49473;BME280;67434;50.956;6.918;2023-04-01T19:30:53;99885.28;;;9.17;89.95
49473;BME280;67434;50.956;6.918;2023-04-01T19:33:58;99886.63;;;9.20;89.53
49473;BME280;67434;50.956;6.918;2023-04-01T19:39:50;99886.91;;;9.13;89.87
49473;BME280;67434;50.956;6.918;2023-04-01T19:52:01;99890.94;;;9.11;89.55
49473;BME280;67434;50.956;6.918;2023-04-01T20:00:57;99907.91;;;9.06;89.87
49473;BME280;67434;50.956;6.918;2023-04-01T20:03:50;99912.50;;;9.05;89.15
49473;BME280;67434;50.956;6.918;2023-04-01T20:06:52;99910.34;;;9.02;89.20
49473;BME280;67434;50.956;6.918;2023-04-01T20:12:59;99923.00;;;8.97;89.57
49473;BME280;67434;50.956;6.918;2023-04-01T20:15:59;99939.44;;;8.95;89.95
49473;BME280;67434;50.956;6.918;2023-04-01T20:18:58;99935.63;;;8.91;90.14
49473;BME280;67434;50.956;6.918;2023-04-01T20:21:49;99939.13;;;8.92;89.74
49473;BME280;67434;50.956;6.918;2023-04-01T20:24:42;99942.34;;;8.84;90.34
49473;BME280;67434;50.956;6.918;2023-04-01T20:31:06;99953.13;;;8.89;90.21
49473;BME280;67434;50.956;6.918;2023-04-01T20:46:06;99966.59;;;8.84;90.88
49473;BME280;67434;50.956;6.918;2023-04-01T20:48:59;99975.22;;;8.86;90.69
49473;BME280;67434;50.956;6.918;2023-04-01T21:03:45;99982.78;;;8.89;91.28
49473;BME280;67434;50.956;6.918;2023-04-01T22:01:53;100028.81;;;8.72;91.69
49473;BME280;67434;50.956;6.918;2023-04-01T22:11:23;100029.34;;;8.74;91.42
49473;BME280;67434;50.956;6.918;2023-04-01T22:17:41;100043.13;;;8.83;91.67
49473;BME280;67434;50.956;6.918;2023-04-01T22:23:30;100040.97;;;8.80;92.58
49473;BME280;67434;50.956;6.918;2023-04-01T22:26:27;100051.75;;;8.85;92.17
49473;BME280;67434;50.956;6.918;2023-04-01T22:29:23;100052.00;;;8.78;92.67
49473;BME280;67434;50.956;6.918;2023-04-01T22:32:16;100058.19;;;8.73;92.81
49473;BME280;67434;50.956;6.918;2023-04-01T22:43:47;100072.22;;;8.81;93.02
49473;BME280;67434;50.956;6.918;2023-04-01T22:46:42;100072.50;;;8.84;92.45
49473;BME280;67434;50.956;6.918;2023-04-01T22:49:38;100073.88;;;8.87;92.25
49473;BME280;67434;50.956;6.918;2023-04-01T22:52:40;100079.00;;;8.88;92.23
49473;BME280;67434;50.956;6.918;2023-04-01T22:55:30;100073.84;;;8.82;92.76
49473;BME280;67434;50.956;6.918;2023-04-01T22:58:26;100082.19;;;8.80;92.92
49473;BME280;67434;50.956;6.918;2023-04-01T23:01:20;100086.78;;;8.80;92.83
49473;BME280;67434;50.956;6.918;2023-04-01T23:04:11;100090.56;;;8.84;92.87
49473;BME280;67434;50.956;6.918;2023-04-01T23:07:02;100100.28;;;8.85;93.05
49473;BME280;67434;50.956;6.918;2023-04-01T23:09:50;100094.88;;;8.85;92.86
49473;BME280;67434;50.956;6.918;2023-04-01T23:12:38;100106.47;;;8.85;93.08
49473;BME280;67434;50.956;6.918;2023-04-01T23:15:24;100101.59;;;8.82;93.12
49473;BME280;67434;50.956;6.918;2023-04-01T23:24:13;100117.53;;;8.89;92.68
49473;BME280;67434;50.956;6.918;2023-04-01T23:27:05;100117.03;;;8.92;92.65
49473;BME280;67434;50.956;6.918;2023-04-01T23:29:55;100125.94;;;8.92;92.67
49473;BME280;67434;50.956;6.918;2023-04-01T23:32:41;100131.63;;;8.96;92.70
49473;BME280;67434;50.956;6.918;2023-04-01T23:35:27;100133.78;;;8.94;92.69
49473;BME280;67434;50.956;6.918;2023-04-01T23:38:13;100134.31;;;8.96;92.48
49473;BME280;67434;50.956;6.918;2023-04-01T23:40:58;100141.94;;;9.09;91.79
49473;BME280;67434;50.956;6.918;2023-04-01T23:43:45;100139.03;;;9.21;91.66
49473;BME280;67434;50.956;6.918;2023-04-01T23:46:34;100157.59;;;9.12;91.59
49473;BME280;67434;50.956;6.918;2023-04-01T23:49:25;100162.44;;;9.10;91.63
49473;BME280;67434;50.956;6.918;2023-04-01T23:52:27;100175.34;;;9.03;91.91
49473;BME280;67434;50.956;6.918;2023-04-01T23:55:18;100173.75;;;9.07;92.31
49473;BME280;67434;50.956;6.918;2023-04-01T23:58:21;100180.50;;;9.09;92.54
